Time;durP1;ratioP1;P1;durP2;ratioP2;P2;SDS_P1;SDS_P2;PMS_P1;PMS_P2;Temp;Humidity;BMP_temperature;BMP_pressure;BME280_temperature;BME280_humidity;BME280_pressure;Samples;Min_cycle;Max_cycle;Signal;HPM_P1;HPM_P2
2023/06/26 00:00:21;;;;;;;3.42;2.20;;;;;;;;;;4968712;28;20489;-79
2023/06/26 00:02:49;;;;;;;3.72;2.20;;;;;;;;;;4968815;28;20085;-79
2023/06/26 00:05:15;;;;;;;4.00;2.58;;;;;;;;;;4969153;28;20064;-79
2023/06/26 00:07:42;;;;;;;3.20;2.30;;;;;;;;;;4969301;28;20538;-78
2023/06/26 00:10:08;;;;;;;4.43;2.30;;;;;;;;;;4967425;28;20018;-79
2023/06/26 00:12:34;;;;;;;3.53;2.30;;;;;;;;;;4967415;28;20030;-79
2023/06/26 00:15:00;;;;;;;4.47;2.08;;;;;;;;;;4971737;28;20027;-78
2023/06/26 00:17:26;;;;;;;4.05;2.58;;;;;;;;;;4968786;28;20269;-79
2023/06/26 00:19:52;;;;;;;2.15;1.95;;;;;;;;;;4971498;28;20033;-79
2023/06/26 00:22:18;;;;;;;3.40;2.72;;;;;;;;;;4970762;28;20023;-79
2023/06/26 00:24:47;;;;;;;3.40;2.45;;;;;;;;;;4969346;28;20038;-78
2023/06/26 00:27:16;;;;;;;4.35;2.72;;;;;;;;;;4968358;28;21065;-79
2023/06/26 00:29:42;;;;;;;3.15;2.47;;;;;;;;;;4960720;28;20517;-79
2023/06/26 00:32:08;;;;;;;5.97;2.70;;;;;;;;;;4963458;28;20065;-78
2023/06/26 00:34:36;;;;;;;4.10;2.60;;;;;;;;;;4963383;28;20027;-79
2023/06/26 00:37:02;;;;;;;4.00;2.53;;;;;;;;;;4966168;28;20031;-79
2023/06/26 00:39:28;;;;;;;2.60;2.13;;;;;;;;;;4965764;28;20049;-80
2023/06/26 00:41:54;;;;;;;3.15;2.17;;;;;;;;;;4969240;28;20027;-80
2023/06/26 00:44:20;;;;;;;3.03;2.45;;;;;;;;;;4968229;28;20039;-80
2023/06/26 00:46:46;;;;;;;5.18;2.17;;;;;;;;;;4969586;28;20430;-80
2023/06/26 00:49:13;;;;;;;3.55;2.20;;;;;;;;;;4967855;28;20652;-80
2023/06/26 00:51:39;;;;;;;4.40;2.40;;;;;;;;;;4969337;28;20034;-80
2023/06/26 00:54:05;;;;;;;3.97;2.63;;;;;;;;;;4969037;28;20442;-80
2023/06/26 00:56:32;;;;;;;3.78;2.20;;;;;;;;;;4969427;28;20117;-80
2023/06/26 00:58:58;;;;;;;3.83;2.42;;;;;;;;;;4968813;28;20054;-80
2023/06/26 01:01:25;;;;;;;4.72;2.38;;;;;;;;;;4969763;28;20122;-80
2023/06/26 01:03:52;;;;;;;4.32;2.15;;;;;;;;;;4970278;28;20033;-79
2023/06/26 01:06:20;;;;;;;3.28;2.40;;;;;;;;;;4969402;28;20054;-79
2023/06/26 01:08:46;;;;;;;3.42;2.47;;;;;;;;;;4968150;28;20023;-78
2023/06/26 01:11:12;;;;;;;3.65;2.38;;;;;;;;;;4966617;28;20114;-79
2023/06/26 01:13:40;;;;;;;3.60;2.63;;;;;;;;;;4968522;28;20038;-79
2023/06/26 01:16:06;;;;;;;3.85;2.70;;;;;;;;;;4967975;28;20104;-79
2023/06/26 01:18:33;;;;;;;4.28;2.58;;;;;;;;;;4969021;28;20037;-79
2023/06/26 01:21:01;;;;;;;3.25;2.55;;;;;;;;;;4968281;28;20037;-79
2023/06/26 01:23:47;;;;;;;3.15;2.55;;;;;;;;;;4962019;28;20165;-79
2023/06/26 01:26:23;;;;;;;3.47;2.38;;;;;;;;;;4968573;28;20268;-78
2023/06/26 01:28:50;;;;;;;2.65;2.10;;;;;;;;;;4968912;28;20110;-79
2023/06/26 01:31:17;;;;;;;4.85;2.38;;;;;;;;;;4968886;28;20034;-79
2023/06/26 01:33:43;;;;;;;4.28;2.95;;;;;;;;;;4970593;28;20027;-80
2023/06/26 01:36:09;;;;;;;2.97;2.40;;;;;;;;;;4966802;28;20524;-81
2023/06/26 01:38:35;;;;;;;3.65;2.28;;;;;;;;;;4968761;28;20057;-80
2023/06/26 01:41:02;;;;;;;3.03;2.05;;;;;;;;;;4968029;28;20074;-80
2023/06/26 01:43:47;;;;;;;2.83;2.13;;;;;;;;;;4969109;28;20086;-80
2023/06/26 01:46:21;;;;;;;5.95;2.67;;;;;;;;;;4963871;28;20031;-80
2023/06/26 01:48:51;;;;;;;2.97;2.28;;;;;;;;;;4969198;28;20033;-80
2023/06/26 01:51:18;;;;;;;2.08;1.90;;;;;;;;;;4967156;28;20110;-80
2023/06/26 01:53:47;;;;;;;3.42;2.42;;;;;;;;;;4968678;28;20039;-80
2023/06/26 01:56:14;;;;;;;2.40;2.17;;;;;;;;;;4968367;28;20113;-80
2023/06/26 01:58:45;;;;;;;2.28;2.08;;;;;;;;;;4966278;28;20413;-80
2023/06/26 02:01:12;;;;;;;3.38;2.28;;;;;;;;;;4969066;28;20549;-80
2023/06/26 02:03:38;;;;;;;3.20;2.13;;;;;;;;;;4966323;28;20354;-80
2023/06/26 02:06:04;;;;;;;2.42;2.22;;;;;;;;;;4969363;28;20043;-80
2023/06/26 02:08:30;;;;;;;3.72;2.55;;;;;;;;;;4966900;28;20023;-79
2023/06/26 02:10:56;;;;;;;3.63;2.33;;;;;;;;;;4968534;28;20433;-80
2023/06/26 02:13:22;;;;;;;4.43;2.35;;;;;;;;;;4966083;28;20034;-80
2023/06/26 02:15:48;;;;;;;3.08;2.08;;;;;;;;;;4968854;28;20375;-80
2023/06/26 02:18:14;;;;;;;3.42;2.38;;;;;;;;;;4968525;28;20094;-80
2023/06/26 02:20:40;;;;;;;3.30;2.20;;;;;;;;;;4970243;28;20561;-80
2023/06/26 02:23:06;;;;;;;2.70;2.03;;;;;;;;;;4967654;28;20039;-80
2023/06/26 02:25:32;;;;;;;3.05;2.00;;;;;;;;;;4972148;28;20058;-80
2023/06/26 02:28:01;;;;;;;2.63;2.10;;;;;;;;;;4972148;28;20023;-80
2023/06/26 02:30:27;;;;;;;4.25;2.88;;;;;;;;;;4973400;28;20118;-80
2023/06/26 02:32:53;;;;;;;3.80;2.63;;;;;;;;;;4973027;28;20027;-80
2023/06/26 02:35:19;;;;;;;3.15;2.47;;;;;;;;;;4972091;28;20037;-81
2023/06/26 02:37:45;;;;;;;3.78;2.30;;;;;;;;;;4972018;28;20478;-80
2023/06/26 02:40:11;;;;;;;3.90;2.38;;;;;;;;;;4964878;28;20065;-80
2023/06/26 02:42:37;;;;;;;3.30;2.10;;;;;;;;;;4972383;28;20037;-80
2023/06/26 02:45:03;;;;;;;2.67;2.28;;;;;;;;;;4972193;28;20019;-81
2023/06/26 02:47:29;;;;;;;3.35;2.42;;;;;;;;;;4972353;28;20114;-81
2023/06/26 02:49:55;;;;;;;4.43;2.55;;;;;;;;;;4970625;28;20089;-80
2023/06/26 02:52:21;;;;;;;4.65;2.40;;;;;;;;;;4972100;28;20054;-80
2023/06/26 02:54:47;;;;;;;3.55;2.22;;;;;;;;;;4971011;28;20082;-80
2023/06/26 02:57:14;;;;;;;4.15;2.70;;;;;;;;;;4971061;28;20482;-80
2023/06/26 02:59:40;;;;;;;2.67;2.35;;;;;;;;;;4971223;28;20118;-80
2023/06/26 03:02:06;;;;;;;3.30;2.10;;;;;;;;;;4972652;28;20035;-79
2023/06/26 03:04:36;;;;;;;2.75;2.00;;;;;;;;;;4972983;28;20058;-80
2023/06/26 03:07:04;;;;;;;4.10;2.60;;;;;;;;;;4971329;28;20542;-80
2023/06/26 03:09:30;;;;;;;2.92;2.33;;;;;;;;;;4970790;28;20371;-80
2023/06/26 03:11:56;;;;;;;3.72;2.50;;;;;;;;;;4969312;28;20541;-80
2023/06/26 03:14:22;;;;;;;4.25;2.85;;;;;;;;;;4970716;28;20130;-81
2023/06/26 03:16:49;;;;;;;3.90;2.35;;;;;;;;;;4967127;28;20031;-80
2023/06/26 03:19:15;;;;;;;3.45;2.45;;;;;;;;;;4968538;28;20074;-80
2023/06/26 03:21:41;;;;;;;3.13;2.20;;;;;;;;;;4970077;28;20035;-80
2023/06/26 03:24:07;;;;;;;5.03;2.72;;;;;;;;;;4972911;28;20015;-80
2023/06/26 03:26:33;;;;;;;3.53;2.35;;;;;;;;;;4970335;28;20102;-82
2023/06/26 03:28:59;;;;;;;4.68;2.50;;;;;;;;;;4973620;28;20489;-82
2023/06/26 03:31:25;;;;;;;2.22;1.95;;;;;;;;;;4973678;28;20430;-83
2023/06/26 03:33:51;;;;;;;3.42;2.13;;;;;;;;;;4973882;28;20035;-82
2023/06/26 03:36:17;;;;;;;3.92;2.35;;;;;;;;;;4971623;28;20038;-74
2023/06/26 03:38:49;;;;;;;2.65;2.28;;;;;;;;;;4964957;28;20041;-74
2023/06/26 03:41:15;;;;;;;2.63;2.10;;;;;;;;;;4969139;28;20035;-74
2023/06/26 03:43:41;;;;;;;3.67;2.20;;;;;;;;;;4970278;28;20027;-74
2023/06/26 03:46:07;;;;;;;4.03;2.72;;;;;;;;;;4970660;28;20097;-74
2023/06/26 03:48:33;;;;;;;2.80;1.95;;;;;;;;;;4968411;28;20027;-73
2023/06/26 03:51:01;;;;;;;3.40;2.67;;;;;;;;;;4969084;28;20113;-74
2023/06/26 03:53:27;;;;;;;3.30;2.40;;;;;;;;;;4971045;28;20461;-74
2023/06/26 03:55:54;;;;;;;2.65;2.08;;;;;;;;;;4971130;28;20037;-74
2023/06/26 03:58:24;;;;;;;3.70;2.47;;;;;;;;;;4968495;28;20043;-74
2023/06/26 04:00:50;;;;;;;3.45;2.38;;;;;;;;;;4968811;28;20122;-75
2023/06/26 04:03:23;;;;;;;3.15;2.20;;;;;;;;;;4970712;28;20027;-74
2023/06/26 04:05:49;;;;;;;5.90;2.50;;;;;;;;;;4970341;28;20058;-74
2023/06/26 04:08:15;;;;;;;2.78;1.90;;;;;;;;;;4967729;28;20023;-74
2023/06/26 04:10:41;;;;;;;3.53;2.70;;;;;;;;;;4960832;28;20113;-74
2023/06/26 04:13:07;;;;;;;4.50;2.83;;;;;;;;;;4962656;28;20042;-74
2023/06/26 04:15:33;;;;;;;4.00;2.85;;;;;;;;;;4961137;28;20034;-74
2023/06/26 04:17:59;;;;;;;3.00;2.22;;;;;;;;;;4962174;28;20033;-74
2023/06/26 04:20:25;;;;;;;4.05;2.80;;;;;;;;;;4965385;28;20081;-74
2023/06/26 04:22:51;;;;;;;6.88;2.58;;;;;;;;;;4960113;28;20033;-74
2023/06/26 04:25:17;;;;;;;4.72;2.75;;;;;;;;;;4960768;28;20497;-74
2023/06/26 04:27:42;;;;;;;2.85;1.90;;;;;;;;;;4960426;28;20026;-74
2023/06/26 04:30:12;;;;;;;3.50;2.40;;;;;;;;;;4964799;28;20035;-75
2023/06/26 04:32:38;;;;;;;3.95;2.13;;;;;;;;;;4969977;28;20085;-74
2023/06/26 04:35:04;;;;;;;4.22;2.40;;;;;;;;;;4968968;28;20026;-74
2023/06/26 04:37:30;;;;;;;4.68;2.28;;;;;;;;;;4968424;28;20125;-75
2023/06/26 04:39:56;;;;;;;4.57;2.70;;;;;;;;;;4967808;28;20019;-74
2023/06/26 04:42:22;;;;;;;3.28;2.60;;;;;;;;;;4969893;28;20593;-74
2023/06/26 04:44:48;;;;;;;2.50;2.22;;;;;;;;;;4969370;28;20069;-75
2023/06/26 04:47:17;;;;;;;3.40;2.40;;;;;;;;;;4970062;28;20019;-74
2023/06/26 04:49:45;;;;;;;3.65;2.50;;;;;;;;;;4968360;28;20402;-74
2023/06/26 04:52:13;;;;;;;3.65;2.30;;;;;;;;;;4968505;28;20114;-74
2023/06/26 04:54:39;;;;;;;3.20;2.13;;;;;;;;;;4969317;28;20023;-75
2023/06/26 04:57:05;;;;;;;3.40;2.47;;;;;;;;;;4968559;28;20041;-75
2023/06/26 04:59:31;;;;;;;4.45;2.90;;;;;;;;;;4968039;28;20031;-75
2023/06/26 05:01:57;;;;;;;3.28;2.38;;;;;;;;;;4968781;28;20100;-75
2023/06/26 05:04:23;;;;;;;4.30;2.65;;;;;;;;;;4969142;28;20031;-75
2023/06/26 05:06:49;;;;;;;5.28;2.80;;;;;;;;;;4969051;28;20144;-75
2023/06/26 05:09:15;;;;;;;2.63;2.03;;;;;;;;;;4968117;28;20034;-75
2023/06/26 05:11:41;;;;;;;3.83;2.33;;;;;;;;;;4966783;28;20046;-75
2023/06/26 05:14:07;;;;;;;3.50;2.40;;;;;;;;;;4969542;28;20081;-75
2023/06/26 05:16:34;;;;;;;3.40;2.10;;;;;;;;;;4968984;28;20545;-75
2023/06/26 05:19:00;;;;;;;3.47;2.42;;;;;;;;;;4969405;28;20781;-75
2023/06/26 05:21:26;;;;;;;3.55;2.55;;;;;;;;;;4966830;28;20082;-75
2023/06/26 05:23:54;;;;;;;4.68;2.78;;;;;;;;;;4968972;28;20035;-75
2023/06/26 05:26:20;;;;;;;5.10;2.42;;;;;;;;;;4969378;28;20103;-75
2023/06/26 05:28:48;;;;;;;2.97;2.42;;;;;;;;;;4969283;28;20029;-75
2023/06/26 05:31:14;;;;;;;3.03;2.10;;;;;;;;;;4963286;28;20018;-75
2023/06/26 05:33:43;;;;;;;4.97;2.80;;;;;;;;;;4975059;28;20045;-74
2023/06/26 05:36:09;;;;;;;3.70;2.55;;;;;;;;;;4969458;28;20102;-75
2023/06/26 05:38:35;;;;;;;3.70;2.40;;;;;;;;;;4967144;28;20038;-74
2023/06/26 05:41:01;;;;;;;4.45;2.88;;;;;;;;;;4968136;28;20125;-75
2023/06/26 05:43:27;;;;;;;3.10;2.35;;;;;;;;;;4968168;28;20038;-74
2023/06/26 05:45:53;;;;;;;3.28;2.50;;;;;;;;;;4968679;28;20386;-74
2023/06/26 05:48:19;;;;;;;3.78;2.47;;;;;;;;;;4967692;28;20023;-75
2023/06/26 05:50:46;;;;;;;3.78;2.83;;;;;;;;;;4968767;28;20128;-74
2023/06/26 05:53:12;;;;;;;3.30;2.20;;;;;;;;;;4964585;28;20433;-74
2023/06/26 05:55:39;;;;;;;3.53;2.15;;;;;;;;;;4967254;28;20043;-74
2023/06/26 05:58:05;;;;;;;3.10;2.42;;;;;;;;;;4967289;28;20035;-75
2023/06/26 06:00:31;;;;;;;4.80;2.55;;;;;;;;;;4970491;28;20458;-75
2023/06/26 06:02:57;;;;;;;3.72;2.25;;;;;;;;;;4972664;28;20532;-75
2023/06/26 06:05:23;;;;;;;3.60;2.33;;;;;;;;;;4971778;28;20031;-75
2023/06/26 06:07:50;;;;;;;3.83;2.60;;;;;;;;;;4980473;28;20031;-74
2023/06/26 06:10:15;;;;;;;6.50;2.58;;;;;;;;;;4969790;28;20045;-74
2023/06/26 06:12:41;;;;;;;2.25;2.05;;;;;;;;;;4975534;28;20027;-73
2023/06/26 06:15:08;;;;;;;2.60;2.05;;;;;;;;;;4965218;28;20122;-74
2023/06/26 06:17:34;;;;;;;3.95;2.33;;;;;;;;;;4968960;28;20041;-75
2023/06/26 06:20:00;;;;;;;2.88;2.50;;;;;;;;;;4982746;28;20109;-74
2023/06/26 06:22:26;;;;;;;3.53;2.97;;;;;;;;;;4971625;28;20030;-74
2023/06/26 06:24:52;;;;;;;3.63;2.35;;;;;;;;;;4968711;28;20054;-80
2023/06/26 06:27:18;;;;;;;2.60;2.05;;;;;;;;;;4969965;28;20406;-77
2023/06/26 06:29:44;;;;;;;4.47;2.30;;;;;;;;;;4966434;28;20126;-75
2023/06/26 06:32:10;;;;;;;3.42;2.63;;;;;;;;;;4968696;28;20130;-76
2023/06/26 06:34:36;;;;;;;2.97;2.33;;;;;;;;;;4968531;28;20112;-79
2023/06/26 06:37:03;;;;;;;6.82;2.78;;;;;;;;;;4974463;28;20054;-79
2023/06/26 06:39:28;;;;;;;3.80;2.40;;;;;;;;;;4967889;28;20031;-82
2023/06/26 06:41:54;;;;;;;2.80;2.50;;;;;;;;;;4971566;28;20438;-81
2023/06/26 06:44:21;;;;;;;3.63;2.35;;;;;;;;;;4972408;28;20085;-81
2023/06/26 06:46:47;;;;;;;5.47;2.63;;;;;;;;;;4972345;28;20033;-80
2023/06/26 06:49:13;;;;;;;5.72;2.78;;;;;;;;;;4967070;28;20031;-80
2023/06/26 06:51:39;;;;;;;4.97;2.58;;;;;;;;;;4970934;28;20019;-87
2023/06/26 06:54:09;;;;;;;4.03;2.63;;;;;;;;;;4969735;28;20437;-83
2023/06/26 06:56:35;;;;;;;3.25;2.17;;;;;;;;;;4973663;28;20461;-82
2023/06/26 06:59:01;;;;;;;3.60;2.65;;;;;;;;;;4971977;28;20041;-84
2023/06/26 07:01:28;;;;;;;5.75;3.00;;;;;;;;;;4984564;28;20030;-82
2023/06/26 07:03:54;;;;;;;3.65;2.50;;;;;;;;;;4970738;28;20023;-84
2023/06/26 07:06:20;;;;;;;4.53;2.70;;;;;;;;;;4968862;28;20407;-84
2023/06/26 07:08:45;;;;;;;4.10;2.33;;;;;;;;;;4968917;28;20064;-84
2023/06/26 07:11:11;;;;;;;3.22;2.50;;;;;;;;;;4968507;28;20530;-82
2023/06/26 07:13:37;;;;;;;3.45;2.50;;;;;;;;;;4969386;28;20035;-86
2023/06/26 07:16:04;;;;;;;6.05;3.03;;;;;;;;;;4966092;28;20030;-81
2023/06/26 07:18:30;;;;;;;2.70;2.17;;;;;;;;;;4960263;28;20058;-81
2023/06/26 07:20:55;;;;;;;3.40;2.30;;;;;;;;;;4969258;28;20031;-80
2023/06/26 07:23:22;;;;;;;3.55;2.58;;;;;;;;;;4970518;28;20031;-82
2023/06/26 07:25:48;;;;;;;3.70;2.50;;;;;;;;;;4971356;28;20046;-80
2023/06/26 07:28:14;;;;;;;5.72;2.67;;;;;;;;;;4967658;28;20051;-79
2023/06/26 07:30:40;;;;;;;3.67;2.47;;;;;;;;;;4969277;28;20142;-79
2023/06/26 07:33:06;;;;;;;4.50;2.78;;;;;;;;;;4969598;28;20030;-80
2023/06/26 07:35:32;;;;;;;3.55;2.28;;;;;;;;;;4968189;28;20035;-80
2023/06/26 07:37:58;;;;;;;4.00;2.40;;;;;;;;;;4969605;28;20074;-80
2023/06/26 07:40:24;;;;;;;3.35;2.70;;;;;;;;;;4966887;28;20174;-78
2023/06/26 07:42:50;;;;;;;3.83;2.70;;;;;;;;;;4970156;28;20031;-82
2023/06/26 07:45:16;;;;;;;3.63;2.28;;;;;;;;;;4970461;28;20042;-83
2023/06/26 07:47:43;;;;;;;3.63;2.22;;;;;;;;;;4962685;28;20109;-81
2023/06/26 07:50:09;;;;;;;3.00;2.05;;;;;;;;;;4966790;28;20019;-80
2023/06/26 07:52:35;;;;;;;3.00;2.20;;;;;;;;;;4971664;28;20090;-82
2023/06/26 07:55:01;;;;;;;3.45;2.38;;;;;;;;;;4974545;28;20114;-81
2023/06/26 07:57:29;;;;;;;2.70;2.22;;;;;;;;;;4970828;28;20038;-82
2023/06/26 07:59:55;;;;;;;4.38;2.35;;;;;;;;;;4963499;28;20051;-80
2023/06/26 08:02:21;;;;;;;3.17;2.22;;;;;;;;;;4955295;28;20473;-78
2023/06/26 08:04:47;;;;;;;3.60;2.30;;;;;;;;;;4955679;28;20022;-77
2023/06/26 08:07:13;;;;;;;2.75;2.05;;;;;;;;;;4962692;28;20568;-80
2023/06/26 08:09:40;;;;;;;4.60;2.53;;;;;;;;;;4965663;28;20167;-80
2023/06/26 08:12:06;;;;;;;3.72;2.45;;;;;;;;;;4966733;28;20066;-79
2023/06/26 08:14:32;;;;;;;3.53;2.35;;;;;;;;;;4970589;28;20031;-79
2023/06/26 08:16:59;;;;;;;3.03;2.72;;;;;;;;;;4970600;28;20093;-79
2023/06/26 08:19:25;;;;;;;3.20;2.20;;;;;;;;;;4970508;28;20027;-79
2023/06/26 08:21:51;;;;;;;2.63;1.95;;;;;;;;;;4967437;28;20030;-79
2023/06/26 08:24:18;;;;;;;2.45;2.20;;;;;;;;;;4969884;28;20035;-80
2023/06/26 08:26:46;;;;;;;2.50;2.05;;;;;;;;;;4970032;28;20047;-80
2023/06/26 08:29:15;;;;;;;2.42;2.10;;;;;;;;;;4971037;28;20019;-79
2023/06/26 08:31:42;;;;;;;3.33;1.77;;;;;;;;;;4969151;28;20026;-79
2023/06/26 08:34:09;;;;;;;2.72;2.20;;;;;;;;;;4969061;28;20041;-79
2023/06/26 08:36:35;;;;;;;2.92;2.00;;;;;;;;;;4970104;28;20157;-79
2023/06/26 08:39:01;;;;;;;2.95;2.00;;;;;;;;;;4969431;28;20121;-79
2023/06/26 08:41:27;;;;;;;2.95;2.20;;;;;;;;;;4970043;28;20015;-79
2023/06/26 08:43:53;;;;;;;4.68;1.90;;;;;;;;;;4968747;28;20631;-81
2023/06/26 08:46:19;;;;;;;1.63;1.52;;;;;;;;;;4969364;28;20023;-81
2023/06/26 08:49:05;;;;;;;2.85;1.80;;;;;;;;;;4969852;28;20111;-81
2023/06/26 08:51:34;;;;;;;3.08;1.85;;;;;;;;;;4969833;28;20552;-81
2023/06/26 08:54:01;;;;;;;2.38;1.85;;;;;;;;;;4969726;28;20117;-81
2023/06/26 08:56:36;;;;;;;3.00;2.17;;;;;;;;;;4968702;28;20106;-80
2023/06/26 08:59:02;;;;;;;1.85;1.70;;;;;;;;;;4969717;28;20717;-81
2023/06/26 09:01:28;;;;;;;2.80;1.98;;;;;;;;;;4968254;28;20477;-81
2023/06/26 09:03:57;;;;;;;5.40;2.22;;;;;;;;;;4969498;28;20110;-81
2023/06/26 09:06:23;;;;;;;2.42;1.88;;;;;;;;;;4969760;28;20101;-81
2023/06/26 09:08:49;;;;;;;3.38;2.10;;;;;;;;;;4970038;28;20054;-81
2023/06/26 09:11:15;;;;;;;2.65;2.15;;;;;;;;;;4966170;28;20026;-81
2023/06/26 09:13:41;;;;;;;2.97;2.00;;;;;;;;;;4965149;28;20061;-80
2023/06/26 09:16:08;;;;;;;3.05;1.98;;;;;;;;;;4969822;28;20173;-80
2023/06/26 09:18:34;;;;;;;2.22;1.73;;;;;;;;;;4969526;28;20061;-80
2023/06/26 09:21:00;;;;;;;3.13;2.05;;;;;;;;;;4969627;28;20030;-80
2023/06/26 09:23:27;;;;;;;3.05;1.80;;;;;;;;;;4967226;28;20088;-81
2023/06/26 09:25:53;;;;;;;1.73;1.60;;;;;;;;;;4961102;28;20022;-80
2023/06/26 09:28:19;;;;;;;4.13;2.03;;;;;;;;;;4968778;28;20034;-80
2023/06/26 09:30:46;;;;;;;3.22;1.95;;;;;;;;;;4969185;28;20386;-79
2023/06/26 09:33:34;;;;;;;2.97;2.13;;;;;;;;;;4969113;28;20170;-80
2023/06/26 09:36:00;;;;;;;4.95;2.22;;;;;;;;;;4966318;28;20038;-79
2023/06/26 09:38:26;;;;;;;2.72;2.17;;;;;;;;;;4970098;28;20513;-80
2023/06/26 09:40:52;;;;;;;2.35;1.92;;;;;;;;;;4968913;28;20031;-78
2023/06/26 09:43:19;;;;;;;2.28;1.88;;;;;;;;;;4969493;28;20023;-79
2023/06/26 09:45:45;;;;;;;3.05;1.83;;;;;;;;;;4968630;28;20026;-79
2023/06/26 09:48:14;;;;;;;2.97;2.08;;;;;;;;;;4969365;28;20561;-79
2023/06/26 09:50:42;;;;;;;2.60;1.80;;;;;;;;;;4967561;28;20031;-79
2023/06/26 09:53:15;;;;;;;3.50;2.38;;;;;;;;;;4969361;28;20038;-79
2023/06/26 09:55:43;;;;;;;2.95;2.10;;;;;;;;;;4968777;28;20086;-80
2023/06/26 09:58:14;;;;;;;2.80;1.77;;;;;;;;;;4967581;28;20043;-80
2023/06/26 10:00:40;;;;;;;2.78;1.77;;;;;;;;;;4968890;28;20027;-80
2023/06/26 10:03:06;;;;;;;2.88;2.00;;;;;;;;;;4969236;28;20023;-80
2023/06/26 10:05:32;;;;;;;3.15;1.85;;;;;;;;;;4968748;28;20061;-80
2023/06/26 10:07:59;;;;;;;1.95;1.75;;;;;;;;;;4967757;28;20028;-79
2023/06/26 10:10:25;;;;;;;2.47;1.92;;;;;;;;;;4968776;28;20037;-80
2023/06/26 10:12:55;;;;;;;1.98;1.38;;;;;;;;;;4967449;28;20042;-80
2023/06/26 10:15:21;;;;;;;2.45;1.85;;;;;;;;;;4967312;28;20046;-80
2023/06/26 10:17:49;;;;;;;5.40;2.50;;;;;;;;;;4968680;28;20506;-80
2023/06/26 10:20:16;;;;;;;2.30;1.70;;;;;;;;;;4969132;28;20038;-80
2023/06/26 10:22:44;;;;;;;3.03;1.90;;;;;;;;;;4968569;28;20015;-80
2023/06/26 10:25:11;;;;;;;2.35;2.08;;;;;;;;;;4967699;28;20041;-80
2023/06/26 10:27:41;;;;;;;2.28;1.95;;;;;;;;;;4967453;28;20027;-80
2023/06/26 10:30:10;;;;;;;2.70;1.83;;;;;;;;;;4968255;28;20394;-79
2023/06/26 10:32:37;;;;;;;2.50;1.70;;;;;;;;;;4968556;28;20023;-80
2023/06/26 10:35:07;;;;;;;2.42;1.80;;;;;;;;;;4968389;28;20102;-80
2023/06/26 10:37:46;;;;;;;3.05;1.83;;;;;;;;;;4969017;28;20042;-80
2023/06/26 10:40:13;;;;;;;2.92;1.95;;;;;;;;;;4967492;28;20031;-80
2023/06/26 10:42:39;;;;;;;2.10;1.60;;;;;;;;;;4968628;28;20023;-80
2023/06/26 10:45:19;;;;;;;2.35;1.88;;;;;;;;;;4968793;28;20117;-79
2023/06/26 10:47:49;;;;;;;2.80;1.88;;;;;;;;;;4972107;28;20043;-80
2023/06/26 10:50:18;;;;;;;3.45;2.00;;;;;;;;;;4971104;28;20030;-80
2023/06/26 10:53:04;;;;;;;2.53;1.67;;;;;;;;;;4972205;28;20022;-79
2023/06/26 10:55:30;;;;;;;2.45;1.75;;;;;;;;;;4969612;28;20035;-80
2023/06/26 10:57:57;;;;;;;2.47;1.80;;;;;;;;;;4970574;28;20089;-80
2023/06/26 11:00:22;;;;;;;3.17;2.00;;;;;;;;;;4972090;28;20026;-80
2023/06/26 11:02:50;;;;;;;2.53;1.65;;;;;;;;;;4971360;28;20389;-79
2023/06/26 11:05:29;;;;;;;2.63;1.70;;;;;;;;;;4972103;28;20055;-79
2023/06/26 11:08:03;;;;;;;2.17;1.60;;;;;;;;;;4970471;28;20086;-79
2023/06/26 11:10:48;;;;;;;3.28;1.90;;;;;;;;;;4971416;28;20100;-79
2023/06/26 11:13:14;;;;;;;1.90;1.60;;;;;;;;;;4972186;28;20098;-80
2023/06/26 11:15:44;;;;;;;2.00;1.60;;;;;;;;;;4971496;28;20031;-79
2023/06/26 11:18:11;;;;;;;1.90;1.58;;;;;;;;;;4970971;28;20027;-79
2023/06/26 11:20:37;;;;;;;2.00;1.77;;;;;;;;;;4968349;28;20558;-80
2023/06/26 11:23:07;;;;;;;2.53;1.58;;;;;;;;;;4971513;28;20022;-79
2023/06/26 11:25:37;;;;;;;1.75;1.50;;;;;;;;;;4972199;28;20046;-79
2023/06/26 11:28:04;;;;;;;2.00;1.80;;;;;;;;;;4971079;28;20075;-80
2023/06/26 11:30:30;;;;;;;1.77;1.55;;;;;;;;;;4970296;28;20521;-79
2023/06/26 11:33:09;;;;;;;2.35;1.73;;;;;;;;;;4972022;28;20065;-79
2023/06/26 11:35:38;;;;;;;2.72;1.70;;;;;;;;;;4971554;28;20034;-80
2023/06/26 11:38:05;;;;;;;1.95;1.70;;;;;;;;;;4971931;28;20113;-80
2023/06/26 11:40:32;;;;;;;3.58;2.00;;;;;;;;;;4970290;28;20157;-80
2023/06/26 11:43:03;;;;;;;1.83;1.33;;;;;;;;;;4970646;28;20022;-79
2023/06/26 11:45:29;;;;;;;;;;;;;;;;;;4972011;28;20069;-79
2023/06/26 11:47:56;;;;;;;3.10;1.50;;;;;;;;;;4971663;28;19910;-79
2023/06/26 11:50:22;;;;;;;1.50;1.40;;;;;;;;;;4971543;28;20474;-80
2023/06/26 11:52:53;;;;;;;2.70;1.60;;;;;;;;;;4970819;28;20109;-79
2023/06/26 11:55:19;;;;;;;2.17;1.80;;;;;;;;;;4970219;28;20483;-79
2023/06/26 11:57:50;;;;;;;1.83;1.70;;;;;;;;;;4969531;28;20055;-79
2023/06/26 12:00:17;;;;;;;1.80;1.65;;;;;;;;;;4970931;28;20035;-79
2023/06/26 12:02:43;;;;;;;2.20;1.70;;;;;;;;;;4970803;28;20026;-80
2023/06/26 12:05:09;;;;;;;3.90;2.40;;;;;;;;;;4968326;28;20057;-79
2023/06/26 12:07:36;;;;;;;2.35;1.67;;;;;;;;;;4969635;28;20681;-79
2023/06/26 12:10:04;;;;;;;2.17;1.98;;;;;;;;;;4970893;28;20023;-79
2023/06/26 12:12:33;;;;;;;2.97;1.73;;;;;;;;;;4971067;28;20054;-80
2023/06/26 12:15:00;;;;;;;2.10;1.85;;;;;;;;;;4969433;28;20043;-80
2023/06/26 12:17:26;;;;;;;2.63;2.00;;;;;;;;;;4968193;28;20058;-79
2023/06/26 12:19:52;;;;;;;2.60;2.20;;;;;;;;;;4969194;28;20109;-80
2023/06/26 12:22:18;;;;;;;4.13;2.45;;;;;;;;;;4965848;28;20042;-80
2023/06/26 12:24:45;;;;;;;2.30;1.98;;;;;;;;;;4970577;28;20162;-80
2023/06/26 12:27:12;;;;;;;2.92;2.13;;;;;;;;;;4970064;28;20035;-80
2023/06/26 12:29:39;;;;;;;2.78;1.92;;;;;;;;;;4970328;28;20038;-80
2023/06/26 12:32:08;;;;;;;2.53;2.00;;;;;;;;;;4969930;28;20035;-80
2023/06/26 12:34:35;;;;;;;2.45;1.63;;;;;;;;;;4968164;28;20071;-80
2023/06/26 12:37:03;;;;;;;2.17;1.63;;;;;;;;;;4970117;28;20158;-80
2023/06/26 12:39:29;;;;;;;1.98;1.60;;;;;;;;;;4970280;28;20035;-80
2023/06/26 12:42:00;;;;;;;2.10;1.90;;;;;;;;;;4969561;28;20035;-80
2023/06/26 12:44:27;;;;;;;2.03;1.83;;;;;;;;;;4969209;28;20026;-80
2023/06/26 12:47:01;;;;;;;2.03;1.83;;;;;;;;;;4969918;28;20109;-80
2023/06/26 12:49:45;;;;;;;2.58;2.00;;;;;;;;;;4967711;28;20051;-81
2023/06/26 12:52:15;;;;;;;2.15;1.95;;;;;;;;;;4968253;28;20034;-86
2023/06/26 12:54:42;;;;;;;1.85;1.75;;;;;;;;;;4970536;28;20117;-79
2023/06/26 12:57:13;;;;;;;2.00;1.73;;;;;;;;;;4969812;28;20423;-82
2023/06/26 12:59:39;;;;;;;1.90;1.65;;;;;;;;;;4967127;28;20038;-82
2023/06/26 13:02:06;;;;;;;1.85;1.55;;;;;;;;;;4969409;28;20031;-84
2023/06/26 13:04:32;;;;;;;1.98;1.77;;;;;;;;;;4970008;28;20027;-82
2023/06/26 13:06:58;;;;;;;1.88;1.77;;;;;;;;;;4968736;28;20041;-80
2023/06/26 13:09:24;;;;;;;2.22;1.95;;;;;;;;;;4968701;28;20019;-82
2023/06/26 13:11:51;;;;;;;2.50;1.80;;;;;;;;;;4968569;28;20023;-82
2023/06/26 13:14:17;;;;;;;2.63;2.00;;;;;;;;;;4967940;28;20084;-79
2023/06/26 13:16:43;;;;;;;2.95;2.08;;;;;;;;;;4969941;28;20034;-79
2023/06/26 13:19:09;;;;;;;2.00;1.55;;;;;;;;;;4968639;28;20034;-78
2023/06/26 13:21:35;;;;;;;2.90;2.08;;;;;;;;;;4969236;28;20126;-79
2023/06/26 13:24:03;;;;;;;2.72;2.17;;;;;;;;;;4969495;28;20045;-78
2023/06/26 13:26:29;;;;;;;3.50;2.60;;;;;;;;;;4969641;28;20106;-80
2023/06/26 13:28:55;;;;;;;4.20;2.38;;;;;;;;;;4966163;28;20034;-78
2023/06/26 13:31:21;;;;;;;3.33;2.40;;;;;;;;;;4964895;28;20046;-80
2023/06/26 13:33:52;;;;;;;2.92;2.47;;;;;;;;;;4962787;28;20034;-80
2023/06/26 13:36:18;;;;;;;3.25;2.58;;;;;;;;;;4966815;28;20041;-80
2023/06/26 13:38:44;;;;;;;3.47;2.60;;;;;;;;;;4965604;28;20509;-77
2023/06/26 13:41:10;;;;;;;3.40;2.65;;;;;;;;;;4964304;28;20031;-77
2023/06/26 13:43:36;;;;;;;4.30;2.80;;;;;;;;;;4969587;28;20121;-76
2023/06/26 13:46:02;;;;;;;3.63;2.72;;;;;;;;;;4966395;28;20118;-77
2023/06/26 13:48:29;;;;;;;2.92;2.20;;;;;;;;;;4968398;28;20073;-75
2023/06/26 13:50:56;;;;;;;3.92;2.75;;;;;;;;;;4965832;28;20026;-80
2023/06/26 13:53:22;;;;;;;3.58;2.58;;;;;;;;;;4968505;28;20375;-77
2023/06/26 13:55:48;;;;;;;5.13;3.03;;;;;;;;;;4969494;28;20034;-76
2023/06/26 13:58:14;;;;;;;5.40;3.38;;;;;;;;;;4963666;28;20588;-84
2023/06/26 14:00:40;;;;;;;12.63;6.00;;;;;;;;;;4966104;28;20027;-84
2023/06/26 14:03:07;;;;;;;18.65;10.35;;;;;;;;;;4964816;28;20057;-81
2023/06/26 14:05:33;;;;;;;10.18;6.20;;;;;;;;;;4969140;28;20375;-80
2023/06/26 14:07:59;;;;;;;13.95;6.53;;;;;;;;;;4967487;28;20482;-78
2023/06/26 14:10:25;;;;;;;12.85;7.35;;;;;;;;;;4966684;28;20082;-78
2023/06/26 14:12:51;;;;;;;13.65;7.85;;;;;;;;;;4964650;28;20023;-77
2023/06/26 14:15:17;;;;;;;14.40;8.65;;;;;;;;;;4965436;28;20037;-78
2023/06/26 14:17:43;;;;;;;16.10;9.27;;;;;;;;;;4968361;28;20027;-78
2023/06/26 14:20:12;;;;;;;11.50;8.07;;;;;;;;;;4964921;28;20031;-79
2023/06/26 14:22:38;;;;;;;14.38;8.85;;;;;;;;;;4961387;28;20074;-77
2023/06/26 14:25:04;;;;;;;16.33;9.07;;;;;;;;;;4967367;28;20062;-75
2023/06/26 14:27:30;;;;;;;17.17;9.43;;;;;;;;;;4968165;28;20019;-75
2023/06/26 14:29:56;;;;;;;22.15;11.30;;;;;;;;;;4971798;28;20030;-75
2023/06/26 14:32:22;;;;;;;17.08;8.23;;;;;;;;;;4969801;28;21294;-75
2023/06/26 14:34:48;;;;;;;18.77;10.73;;;;;;;;;;4964248;28;20034;-73
2023/06/26 14:37:14;;;;;;;14.75;9.35;;;;;;;;;;4967940;28;20027;-74
2023/06/26 14:39:40;;;;;;;15.73;9.45;;;;;;;;;;4967388;28;20035;-75
2023/06/26 14:42:06;;;;;;;14.52;7.78;;;;;;;;;;4968584;28;20030;-75